createdAt,value
2019-05-06T00:01:39.287Z,16.70
2019-05-06T00:04:10.840Z,19.23
2019-05-06T00:06:40.201Z,14.63
2019-05-06T00:09:09.382Z,11.93
2019-05-06T00:11:38.813Z,16.23
2019-05-06T00:14:08.061Z,16.07
2019-05-06T00:16:37.563Z,15.50
2019-05-06T00:19:06.787Z,18.00
2019-05-06T00:21:35.911Z,21.07
2019-05-06T00:24:05.394Z,14.20
2019-05-06T00:26:48.195Z,17.60
2019-05-06T00:29:28.974Z,13.73
2019-05-06T00:31:58.225Z,15.80
2019-05-06T00:34:27.354Z,14.00
2019-05-06T00:36:57.042Z,13.57
2019-05-06T00:39:48.662Z,13.50
2019-05-06T00:42:34.392Z,15.63
2019-05-06T00:45:04.523Z,13.30
2019-05-06T00:47:34.139Z,15.23
2019-05-06T00:50:04.239Z,13.90
2019-05-06T00:52:34.051Z,13.03
2019-05-06T00:55:04.146Z,16.20
2019-05-06T00:57:58.737Z,14.67
2019-05-06T01:00:37.100Z,15.17
2019-05-06T01:03:07.961Z,16.97
2019-05-06T01:05:37.074Z,14.53
2019-05-06T01:08:06.199Z,18.80
2019-05-06T01:10:35.339Z,18.90
2019-05-06T01:13:14.562Z,12.17
2019-05-06T01:15:44.517Z,13.20
2019-05-06T01:18:13.914Z,10.30
2019-05-06T01:20:44.735Z,13.67
2019-05-06T01:23:17.877Z,18.00
2019-05-06T01:25:47.270Z,19.33
2019-05-06T01:28:16.931Z,11.90
2019-05-06T01:30:46.603Z,16.87
2019-05-06T01:33:16.848Z,12.40
2019-05-06T01:35:45.934Z,8.73
2019-05-06T01:38:26.800Z,11.07
2019-05-06T01:41:21.314Z,14.13
2019-05-06T01:43:50.522Z,9.37
2019-05-06T01:46:20.734Z,11.87
2019-05-06T01:48:51.114Z,11.27
2019-05-06T01:51:24.262Z,10.03
2019-05-06T01:53:54.714Z,11.80
2019-05-06T01:56:28.832Z,15.23
2019-05-06T01:58:58.205Z,10.50
2019-05-06T02:01:27.372Z,10.40
2019-05-06T02:03:58.614Z,10.00
2019-05-06T02:06:29.835Z,8.47
2019-05-06T02:08:59.376Z,12.47
2019-05-06T02:11:30.543Z,11.10
2019-05-06T02:14:00.053Z,12.27
2019-05-06T02:16:30.871Z,9.80
2019-05-06T02:19:00.153Z,9.27
2019-05-06T02:21:47.939Z,9.33
2019-05-06T02:24:24.211Z,10.80
2019-05-06T02:26:54.227Z,10.47
2019-05-06T02:29:25.781Z,12.67
2019-05-06T02:32:25.923Z,10.23
2019-05-06T02:34:56.859Z,8.27
2019-05-06T02:37:34.948Z,11.50
2019-05-06T02:40:07.172Z,10.17
2019-05-06T02:42:36.297Z,10.40
2019-05-06T02:45:05.631Z,14.07
2019-05-06T02:47:50.316Z,11.60
2019-05-06T02:50:23.901Z,8.80
2019-05-06T02:52:53.764Z,17.33
2019-05-06T02:55:25.950Z,9.80
2019-05-06T02:57:55.205Z,13.40
2019-05-06T03:00:24.402Z,11.40
2019-05-06T03:02:54.342Z,20.20
2019-05-06T03:05:23.896Z,15.70
2019-05-06T03:07:56.971Z,11.27
2019-05-06T03:10:24.858Z,10.23
2019-05-06T03:12:55.370Z,12.77
2019-05-06T03:15:24.934Z,11.20
2019-05-06T03:17:55.476Z,14.20
2019-05-06T03:20:44.019Z,13.13
2019-05-06T03:23:16.349Z,10.97
2019-05-06T03:25:48.160Z,16.13
2019-05-06T03:28:17.438Z,9.87
2019-05-06T03:30:46.579Z,11.13
2019-05-06T03:33:40.181Z,15.93
2019-05-06T03:36:00.635Z,10.57
2019-05-06T03:38:22.906Z,12.23
2019-05-06T03:41:13.689Z,12.83
2019-05-06T03:43:43.408Z,11.00
2019-05-06T03:46:26.689Z,13.07
2019-05-06T03:49:03.522Z,19.43
2019-05-06T03:51:34.307Z,15.17
2019-05-06T03:54:05.588Z,14.50
2019-05-06T03:56:36.970Z,13.73
2019-05-06T03:59:07.641Z,13.17
2019-05-06T04:01:46.012Z,15.80
2019-05-06T04:04:16.008Z,14.83
2019-05-06T04:06:45.704Z,16.23
2019-05-06T04:09:15.070Z,12.27
2019-05-06T04:11:46.466Z,12.87
2019-05-06T04:14:18.493Z,12.00
2019-05-06T04:16:55.488Z,11.43
2019-05-06T04:19:33.096Z,17.90
2019-05-06T04:22:13.046Z,18.90
2019-05-06T04:25:04.055Z,15.53
2019-05-06T04:27:45.016Z,12.70
2019-05-06T04:30:15.675Z,16.80
2019-05-06T04:32:44.865Z,17.50
2019-05-06T04:35:14.551Z,16.73
2019-05-06T04:37:44.146Z,14.07
2019-05-06T04:40:13.781Z,13.03
2019-05-06T04:42:44.568Z,11.90
2019-05-06T04:45:17.435Z,13.20
2019-05-06T04:47:46.836Z,18.23
2019-05-06T04:50:16.033Z,13.83
2019-05-06T04:52:45.142Z,16.40
2019-05-06T04:55:15.314Z,11.73
2019-05-06T04:57:44.483Z,12.37
2019-05-06T05:00:16.165Z,13.50
2019-05-06T05:02:46.342Z,15.07
2019-05-06T05:05:15.883Z,11.93
2019-05-06T05:07:45.739Z,11.10
2019-05-06T05:10:20.007Z,11.73
2019-05-06T05:13:12.540Z,17.07
2019-05-06T05:15:52.472Z,16.03
2019-05-06T05:18:26.076Z,17.20
2019-05-06T05:20:55.600Z,18.97
2019-05-06T05:23:29.057Z,18.13
2019-05-06T05:26:02.719Z,17.60
2019-05-06T05:28:32.361Z,16.13
2019-05-06T05:31:03.078Z,22.43
2019-05-06T05:33:32.846Z,21.70
2019-05-06T05:36:04.112Z,19.50
2019-05-06T05:38:34.784Z,18.17
2019-05-06T05:41:05.267Z,13.67
2019-05-06T05:43:52.668Z,11.23
2019-05-06T05:46:21.962Z,13.27
2019-05-06T05:49:11.964Z,13.43
2019-05-06T05:51:42.569Z,10.50
2019-05-06T05:54:12.481Z,13.93
2019-05-06T05:56:43.231Z,15.83
2019-05-06T05:59:12.701Z,12.63
2019-05-06T06:01:43.492Z,12.43
2019-05-06T06:04:14.335Z,10.00
2019-05-06T06:06:43.491Z,12.70
2019-05-06T06:09:12.850Z,10.87
2019-05-06T06:11:48.315Z,10.23
2019-05-06T06:14:55.298Z,18.83
2019-05-06T06:17:45.167Z,11.03
2019-05-06T06:20:37.129Z,10.57
2019-05-06T06:23:16.033Z,12.93
2019-05-06T06:25:45.549Z,11.70
2019-05-06T06:28:16.139Z,13.90
2019-05-06T06:30:54.990Z,13.40
2019-05-06T06:33:26.937Z,12.60
2019-05-06T06:36:05.533Z,10.47
2019-05-06T06:38:56.778Z,11.47
2019-05-06T06:41:25.937Z,11.90
2019-05-06T06:44:05.441Z,13.63
2019-05-06T06:46:37.009Z,11.77
2019-05-06T06:49:06.384Z,11.80
2019-05-06T06:51:35.676Z,12.10
2019-05-06T06:54:05.058Z,11.50
2019-05-06T06:57:05.630Z,12.17
2019-05-06T06:59:35.482Z,13.23
2019-05-06T07:02:23.787Z,11.43
2019-05-06T07:05:27.616Z,14.07
2019-05-06T07:07:49.571Z,14.37
2019-05-06T07:10:36.601Z,13.90
2019-05-06T07:13:05.832Z,15.33
2019-05-06T07:15:34.996Z,13.03
2019-05-06T07:18:05.076Z,16.13
2019-05-06T07:20:39.574Z,13.17
2019-05-06T07:23:24.122Z,15.67
2019-05-06T07:25:55.459Z,16.93
2019-05-06T07:28:26.032Z,16.50
2019-05-06T07:30:56.369Z,16.00
2019-05-06T07:33:25.775Z,12.50
2019-05-06T07:35:58.357Z,16.13
2019-05-06T07:38:27.931Z,11.43
2019-05-06T07:41:06.900Z,10.27
2019-05-06T07:43:55.199Z,13.27
2019-05-06T07:46:44.788Z,8.70
2019-05-06T07:49:14.348Z,8.10
2019-05-06T07:51:43.451Z,7.40
2019-05-06T07:54:12.621Z,10.37
2019-05-06T07:56:42.890Z,9.87
2019-05-06T07:59:12.767Z,7.73
2019-05-06T08:01:43.788Z,10.47
2019-05-06T08:04:13.938Z,9.17
2019-05-06T08:06:43.124Z,10.40
2019-05-06T08:09:13.754Z,12.00
2019-05-06T08:11:45.512Z,11.30
2019-05-06T08:14:14.642Z,12.43
2019-05-06T08:16:54.395Z,14.03
2019-05-06T08:19:25.156Z,11.73
2019-05-06T08:21:56.400Z,13.13
2019-05-06T08:24:25.543Z,11.30
2019-05-06T08:26:55.752Z,26.30
2019-05-06T08:29:25.289Z,37.83
2019-05-06T08:31:54.948Z,53.43
2019-05-06T08:34:24.060Z,56.90
2019-05-06T08:37:03.315Z,51.17
2019-05-06T08:39:32.766Z,43.17
2019-05-06T08:42:02.802Z,40.50
2019-05-06T08:44:34.651Z,43.57
2019-05-06T08:47:06.714Z,34.50
2019-05-06T08:50:15.147Z,29.13
2019-05-06T08:53:05.016Z,23.47
2019-05-06T08:55:37.605Z,24.30
2019-05-06T08:58:09.542Z,22.67
2019-05-06T09:00:44.815Z,21.57
2019-05-06T09:03:14.479Z,23.03
2019-05-06T09:05:48.983Z,18.30
2019-05-06T09:08:18.327Z,22.57
2019-05-06T09:10:47.684Z,20.10
2019-05-06T09:13:16.894Z,21.93
2019-05-06T09:15:46.006Z,18.03
2019-05-06T09:18:18.149Z,23.77
2019-05-06T09:20:48.596Z,22.63
2019-05-06T09:23:17.738Z,22.80
2019-05-06T09:25:48.542Z,25.87
2019-05-06T09:28:37.156Z,21.67
2019-05-06T09:31:14.858Z,22.23
2019-05-06T09:33:50.356Z,34.60
2019-05-06T09:36:22.739Z,24.77
2019-05-06T09:38:52.954Z,19.80
2019-05-06T09:41:23.107Z,21.43
2019-05-06T09:43:52.935Z,20.60
2019-05-06T09:46:23.208Z,17.57
2019-05-06T09:49:13.097Z,19.03
2019-05-06T09:51:42.916Z,18.63
2019-05-06T09:54:23.350Z,18.70
2019-05-06T09:57:14.590Z,17.60
2019-05-06T09:59:44.017Z,25.63
2019-05-06T10:02:15.138Z,13.93
2019-05-06T10:04:46.431Z,17.77
2019-05-06T10:07:15.629Z,15.33
2019-05-06T10:09:44.878Z,17.17
2019-05-06T10:12:15.906Z,14.77
2019-05-06T10:14:46.352Z,12.87
2019-05-06T10:17:15.712Z,14.60
2019-05-06T10:19:44.932Z,20.50
2019-05-06T10:22:14.112Z,12.87
2019-05-06T10:24:43.462Z,12.97
2019-05-06T10:27:19.762Z,12.95
2019-05-06T10:30:09.480Z,13.03
2019-05-06T10:32:42.750Z,14.33
2019-05-06T10:35:13.077Z,11.13
2019-05-06T10:38:06.840Z,17.40
2019-05-06T10:40:57.342Z,15.43
2019-05-06T10:43:21.977Z,14.03
2019-05-06T10:45:52.059Z,15.60
2019-05-06T10:48:24.839Z,15.37
2019-05-06T10:50:59.995Z,11.23
2019-05-06T10:53:29.594Z,11.93
2019-05-06T10:56:02.410Z,9.93
2019-05-06T10:58:36.090Z,11.67
2019-05-06T11:01:18.390Z,12.50
2019-05-06T11:03:47.659Z,13.37
2019-05-06T11:06:16.786Z,12.70
2019-05-06T11:08:47.180Z,15.30
2019-05-06T11:11:32.759Z,12.60
2019-05-06T11:13:53.239Z,15.27
2019-05-06T11:16:23.755Z,11.93
2019-05-06T11:18:53.605Z,11.50
2019-05-06T11:21:24.907Z,10.90
2019-05-06T11:23:54.340Z,11.70
2019-05-06T11:26:23.800Z,7.47
2019-05-06T11:28:57.528Z,9.40
2019-05-06T11:31:47.017Z,6.93
2019-05-06T11:34:37.557Z,10.47
2019-05-06T11:37:23.447Z,10.37
2019-05-06T11:39:53.003Z,9.07
2019-05-06T11:42:30.962Z,9.30
2019-05-06T11:44:53.708Z,10.00
2019-05-06T11:47:24.162Z,8.70
2019-05-06T11:49:56.898Z,11.70
2019-05-06T11:52:26.148Z,10.83
2019-05-06T11:54:55.184Z,9.30
2019-05-06T11:57:26.620Z,9.37
2019-05-06T11:59:56.150Z,11.40
2019-05-06T12:02:26.702Z,10.27
2019-05-06T12:04:55.957Z,7.10
2019-05-06T12:07:25.194Z,8.40
2019-05-06T12:09:54.750Z,10.27
2019-05-06T12:12:24.019Z,10.63
2019-05-06T12:14:53.664Z,12.00
2019-05-06T12:17:23.014Z,9.37
2019-05-06T12:19:52.849Z,10.33
2019-05-06T12:22:24.328Z,15.87
2019-05-06T12:24:54.749Z,17.20
2019-05-06T12:27:44.191Z,16.77
2019-05-06T12:30:15.879Z,20.47
2019-05-06T12:33:07.273Z,14.33
2019-05-06T12:35:38.374Z,12.43
2019-05-06T12:38:23.823Z,14.70
2019-05-06T12:40:40.183Z,14.57
2019-05-06T12:43:29.219Z,13.00
2019-05-06T12:46:08.265Z,12.70
2019-05-06T12:48:38.392Z,14.60
2019-05-06T12:51:09.383Z,13.47
2019-05-06T12:53:38.674Z,15.73
2019-05-06T12:56:12.376Z,11.73
2019-05-06T12:58:44.054Z,16.53
2019-05-06T13:01:13.871Z,13.17
2019-05-06T13:03:48.179Z,16.83
2019-05-06T13:06:17.707Z,15.73
2019-05-06T13:08:58.522Z,14.87
2019-05-06T13:11:21.617Z,17.93
2019-05-06T13:13:57.342Z,18.03
2019-05-06T13:16:22.907Z,19.80
2019-05-06T13:18:54.947Z,19.27
2019-05-06T13:21:25.028Z,18.13
2019-05-06T13:24:04.600Z,18.73
2019-05-06T13:26:33.525Z,18.23
2019-05-06T13:29:08.245Z,21.07
2019-05-06T13:31:37.483Z,24.10
2019-05-06T13:34:12.069Z,25.87
2019-05-06T13:36:42.890Z,20.57
2019-05-06T13:39:15.249Z,29.57
2019-05-06T13:41:44.673Z,17.73
2019-05-06T13:44:17.165Z,15.17
2019-05-06T13:46:55.707Z,16.57
2019-05-06T13:49:48.631Z,20.47
2019-05-06T13:52:22.934Z,18.60
2019-05-06T13:54:56.710Z,21.47
2019-05-06T13:57:28.888Z,18.83
2019-05-06T14:00:03.008Z,13.50
2019-05-06T14:02:37.901Z,17.27
2019-05-06T14:05:07.564Z,13.07
2019-05-06T14:07:37.481Z,17.83
2019-05-06T14:10:12.993Z,13.87
2019-05-06T14:12:42.602Z,12.70
2019-05-06T14:15:13.949Z,13.90
2019-05-06T14:17:44.074Z,13.37
2019-05-06T14:20:15.154Z,12.30
2019-05-06T14:22:47.608Z,11.23
2019-05-06T14:25:33.146Z,13.33
2019-05-06T14:28:15.016Z,9.33
2019-05-06T14:31:03.318Z,9.03
2019-05-06T14:33:34.101Z,15.07
2019-05-06T14:36:03.452Z,12.43
2019-05-06T14:38:33.032Z,14.13
2019-05-06T14:41:18.530Z,16.07
2019-05-06T14:43:48.199Z,12.67
2019-05-06T14:46:18.702Z,12.00
2019-05-06T14:48:53.494Z,12.67
2019-05-06T14:51:22.561Z,11.00
2019-05-06T14:53:54.123Z,13.43
2019-05-06T14:56:34.543Z,12.03
2019-05-06T14:59:04.522Z,14.70
2019-05-06T15:01:37.103Z,15.77
2019-05-06T15:04:06.746Z,14.20
2019-05-06T15:06:36.122Z,10.90
2019-05-06T15:09:08.626Z,15.40
2019-05-06T15:11:39.392Z,13.10
2019-05-06T15:14:13.071Z,14.80
2019-05-06T15:16:43.850Z,15.73
2019-05-06T15:19:13.303Z,15.37
2019-05-06T15:21:43.087Z,13.60
2019-05-06T15:24:14.202Z,13.30
2019-05-06T15:26:43.436Z,9.23
2019-05-06T15:29:14.680Z,12.03
2019-05-06T15:32:02.964Z,11.13
2019-05-06T15:34:47.649Z,11.60
2019-05-06T15:37:27.346Z,10.90
2019-05-06T15:39:58.677Z,10.80
2019-05-06T15:42:29.606Z,11.00
2019-05-06T15:44:58.924Z,10.57
2019-05-06T15:47:28.438Z,11.23
2019-05-06T15:50:00.940Z,9.60
2019-05-06T15:52:32.471Z,15.73
2019-05-06T15:55:03.243Z,16.70
2019-05-06T15:57:43.277Z,12.37
2019-05-06T16:00:15.799Z,13.50
2019-05-06T16:02:46.163Z,14.10
2019-05-06T16:05:20.133Z,11.00
2019-05-06T16:07:52.867Z,12.67
2019-05-06T16:10:27.527Z,9.53
2019-05-06T16:12:57.926Z,10.60
2019-05-06T16:15:29.948Z,11.40
2019-05-06T16:17:59.344Z,14.80
2019-05-06T16:20:33.157Z,12.83
2019-05-06T16:23:27.739Z,9.97
2019-05-06T16:25:57.079Z,11.03
2019-05-06T16:28:29.455Z,14.97
2019-05-06T16:31:05.142Z,14.10
2019-05-06T16:33:37.644Z,13.90
2019-05-06T16:36:13.444Z,14.57
2019-05-06T16:38:43.360Z,14.13
2019-05-06T16:41:16.371Z,14.77
2019-05-06T16:43:45.648Z,12.80
2019-05-06T16:46:17.772Z,12.63
2019-05-06T16:48:47.969Z,12.53
2019-05-06T16:51:18.053Z,13.40
2019-05-06T16:53:47.210Z,16.23
2019-05-06T16:56:26.802Z,16.07
2019-05-06T16:59:02.978Z,18.27
2019-05-06T17:01:34.506Z,14.17
2019-05-06T17:04:32.818Z,12.93
2019-05-06T17:07:03.800Z,15.60
2019-05-06T17:09:33.347Z,11.60
2019-05-06T17:12:05.937Z,14.73
2019-05-06T17:14:37.403Z,20.27
2019-05-06T17:17:06.535Z,11.13
2019-05-06T17:19:37.235Z,10.93
2019-05-06T17:22:06.409Z,8.87
2019-05-06T17:24:42.122Z,10.40
2019-05-06T17:27:12.068Z,10.40
2019-05-06T17:29:50.993Z,9.67
2019-05-06T17:32:36.911Z,9.57
2019-05-06T17:35:08.027Z,10.87
2019-05-06T17:37:56.045Z,8.77
2019-05-06T17:40:28.032Z,9.30
2019-05-06T17:42:57.376Z,8.13
2019-05-06T17:45:58.009Z,10.07
2019-05-06T17:48:37.486Z,10.93
2019-05-06T17:51:13.483Z,9.27
2019-05-06T17:53:52.273Z,9.20
2019-05-06T17:56:22.376Z,9.47
2019-05-06T17:58:54.360Z,11.93
2019-05-06T18:01:34.501Z,9.73
2019-05-06T18:04:04.450Z,9.73
2019-05-06T18:06:36.481Z,10.57
2019-05-06T18:09:12.428Z,8.53
2019-05-06T18:11:42.439Z,10.30
2019-05-06T18:14:18.716Z,9.53
2019-05-06T18:16:53.768Z,9.93
2019-05-06T18:19:25.745Z,10.53
2019-05-06T18:22:02.394Z,10.13
2019-05-06T18:24:34.143Z,11.93
2019-05-06T18:27:03.300Z,10.67
2019-05-06T18:29:33.589Z,9.10
2019-05-06T18:32:03.910Z,7.37
2019-05-06T18:34:35.585Z,6.70
2019-05-06T18:37:05.492Z,9.73
2019-05-06T18:39:34.923Z,11.97
2019-05-06T18:42:18.787Z,8.43
2019-05-06T18:44:37.241Z,7.03
2019-05-06T18:47:06.771Z,7.83
2019-05-06T18:49:37.996Z,9.27
2019-05-06T18:52:07.167Z,8.33
2019-05-06T18:54:36.429Z,9.60
2019-05-06T18:57:05.973Z,8.87
2019-05-06T18:59:36.934Z,6.43
2019-05-06T19:02:06.716Z,5.53
2019-05-06T19:04:47.101Z,6.93
2019-05-06T19:07:17.249Z,9.60
2019-05-06T19:09:55.259Z,8.00
2019-05-06T19:12:39.833Z,9.27
2019-05-06T19:15:03.344Z,9.57
2019-05-06T19:17:36.957Z,12.10
2019-05-06T19:20:08.233Z,8.57
2019-05-06T19:22:37.586Z,10.57
2019-05-06T19:25:07.602Z,7.23
2019-05-06T19:27:38.240Z,9.27
2019-05-06T19:30:10.022Z,7.80
2019-05-06T19:32:42.458Z,9.67
2019-05-06T19:35:13.210Z,13.43
2019-05-06T19:37:42.581Z,11.93
2019-05-06T19:40:12.172Z,9.33
2019-05-06T19:42:49.654Z,9.80
2019-05-06T19:45:16.305Z,7.50
2019-05-06T19:47:45.771Z,9.50
2019-05-06T19:50:15.076Z,11.43
2019-05-06T19:52:44.578Z,10.57
2019-05-06T19:55:13.796Z,9.80
2019-05-06T19:57:43.877Z,11.57
2019-05-06T20:00:13.353Z,10.17
2019-05-06T20:02:43.054Z,10.60
2019-05-06T20:05:22.686Z,8.83
2019-05-06T20:08:07.234Z,11.33
2019-05-06T20:10:58.950Z,10.43
2019-05-06T20:13:42.415Z,9.73
2019-05-06T20:16:12.532Z,11.67
2019-05-06T20:18:42.697Z,14.07
2019-05-06T20:21:12.256Z,12.80
2019-05-06T20:23:43.365Z,12.40
2019-05-06T20:26:15.528Z,12.67
2019-05-06T20:28:45.631Z,11.73
2019-05-06T20:31:15.235Z,10.80
2019-05-06T20:33:46.542Z,12.17
2019-05-06T20:36:15.762Z,12.43
2019-05-06T20:38:45.080Z,13.33
2019-05-06T20:41:14.936Z,13.97
2019-05-06T20:43:46.842Z,12.50
2019-05-06T20:46:16.039Z,12.67
2019-05-06T20:48:47.657Z,12.20
2019-05-06T20:51:16.816Z,9.20
2019-05-06T20:53:46.295Z,9.73
2019-05-06T20:56:18.156Z,10.80
2019-05-06T20:58:52.947Z,8.83
2019-05-06T21:01:22.417Z,13.37
2019-05-06T21:03:52.876Z,12.20
2019-05-06T21:06:27.741Z,11.50
2019-05-06T21:08:57.906Z,10.07
2019-05-06T21:11:32.425Z,9.37
2019-05-06T21:14:02.264Z,14.10
2019-05-06T21:16:32.270Z,10.33
2019-05-06T21:19:03.207Z,9.80
2019-05-06T21:21:32.530Z,11.10
2019-05-06T21:24:02.494Z,11.93
2019-05-06T21:26:33.889Z,10.10
2019-05-06T21:29:03.344Z,11.17
2019-05-06T21:31:32.728Z,12.97
2019-05-06T21:34:04.192Z,11.10
2019-05-06T21:36:33.618Z,11.43
2019-05-06T21:39:02.853Z,12.80
2019-05-06T21:41:33.277Z,19.03
2019-05-06T21:44:02.553Z,25.13
2019-05-06T21:46:32.346Z,18.87
2019-05-06T21:49:02.816Z,22.53
2019-05-06T21:51:33.102Z,22.90
2019-05-06T21:54:02.869Z,19.70
2019-05-06T21:56:32.351Z,22.93
2019-05-06T21:59:02.103Z,24.77
2019-05-06T22:01:33.050Z,21.67
2019-05-06T22:04:03.225Z,23.10
2019-05-06T22:06:33.239Z,21.63
2019-05-06T22:09:04.568Z,24.20
2019-05-06T22:11:34.497Z,27.00
2019-05-06T22:14:03.615Z,25.23
2019-05-06T22:16:33.551Z,26.03
2019-05-06T22:19:02.720Z,25.13
2019-05-06T22:21:34.653Z,24.13
2019-05-06T22:24:06.922Z,25.77
2019-05-06T22:26:42.974Z,26.43
2019-05-06T22:29:12.883Z,29.47
2019-05-06T22:31:44.206Z,26.40
2019-05-06T22:34:15.848Z,31.93
2019-05-06T22:36:44.582Z,27.93
2019-05-06T22:39:14.111Z,27.57
2019-05-06T22:41:45.388Z,26.37
2019-05-06T22:44:17.127Z,28.70
2019-05-06T22:46:46.888Z,28.47
2019-05-06T22:49:16.884Z,28.53
2019-05-06T22:51:46.013Z,32.90
2019-05-06T22:54:15.436Z,33.70
2019-05-06T22:56:45.046Z,29.70
2019-05-06T22:59:14.198Z,30.73
2019-05-06T23:02:06.933Z,30.33
2019-05-06T23:04:39.184Z,33.47
2019-05-06T23:07:08.735Z,31.97
2019-05-06T23:09:44.539Z,33.40
2019-05-06T23:12:13.423Z,35.70
2019-05-06T23:14:44.915Z,34.83
2019-05-06T23:17:15.071Z,32.80
2019-05-06T23:19:47.017Z,33.53
2019-05-06T23:22:16.273Z,31.57
2019-05-06T23:24:52.268Z,32.97
2019-05-06T23:27:23.240Z,32.93
2019-05-06T23:29:52.684Z,35.17
2019-05-06T23:32:22.882Z,36.97
2019-05-06T23:34:56.524Z,40.77
2019-05-06T23:37:24.884Z,37.00
2019-05-06T23:40:42.515Z,32.30
2019-05-06T23:43:47.402Z,35.10
2019-05-06T23:46:52.935Z,34.33
2019-05-06T23:49:57.808Z,35.23
2019-05-06T23:53:03.151Z,35.47
2019-05-06T23:56:09.134Z,38.17
2019-05-06T23:58:38.330Z,38.37
